Time;durP1;ratioP1;P1;durP2;ratioP2;P2;SDS_P1;SDS_P2;PMS_P1;PMS_P2;Temp;Humidity;BMP_temperature;BMP_pressure;BME280_temperature;BME280_humidity;BME280_pressure;Samples;Min_cycle;Max_cycle;Signal;HPM_P1;HPM_P2
2021/03/04 00:00:01;;;;;;;;;;;19.70;38.00;;;;;;500425;237;967;-54
2021/03/04 00:02:02;;;;;;;;;;;19.70;38.00;;;;;;500400;237;1133;-54
2021/03/04 00:04:03;;;;;;;;;;;19.70;38.00;;;;;;500405;237;1052;-54
2021/03/04 00:06:04;;;;;;;;;;;19.70;38.00;;;;;;500279;237;998;-54
2021/03/04 00:08:06;;;;;;;;;;;19.70;38.00;;;;;;500398;237;998;-54
2021/03/04 00:10:07;;;;;;;;;;;19.80;38.00;;;;;;500400;237;1025;-52
2021/03/04 00:12:09;;;;;;;;;;;19.70;37.90;;;;;;500371;237;1224;-54
2021/03/04 00:14:10;;;;;;;;;;;19.80;38.00;;;;;;500345;237;1195;-54
2021/03/04 00:16:11;;;;;;;;;;;19.70;36.70;;;;;;500297;237;1281;-54
2021/03/04 00:18:13;;;;;;;;;;;19.80;38.00;;;;;;500476;237;2172;-54
2021/03/04 00:20:14;;;;;;;;;;;19.70;37.90;;;;;;500497;237;1035;-54
2021/03/04 00:22:15;;;;;;;;;;;19.80;38.00;;;;;;500323;237;1236;-54
2021/03/04 00:24:16;;;;;;;;;;;19.80;38.00;;;;;;500431;237;1085;-54
2021/03/04 00:26:18;;;;;;;;;;;19.80;38.00;;;;;;500289;237;1307;-54
2021/03/04 00:28:19;;;;;;;;;;;19.80;37.90;;;;;;500324;237;1185;-53
2021/03/04 00:30:20;;;;;;;;;;;19.80;37.90;;;;;;500336;237;988;-54
2021/03/04 00:32:21;;;;;;;;;;;19.80;37.90;;;;;;500334;237;1272;-54
2021/03/04 00:34:23;;;;;;;;;;;19.80;37.90;;;;;;500624;237;1085;-54
2021/03/04 00:36:24;;;;;;;;;;;19.80;37.90;;;;;;500446;237;993;-55
2021/03/04 00:38:25;;;;;;;;;;;19.80;37.90;;;;;;500548;237;2121;-54
2021/03/04 00:40:27;;;;;;;;;;;19.80;37.90;;;;;;500410;237;1084;-54
2021/03/04 00:42:28;;;;;;;;;;;19.80;37.90;;;;;;500488;237;1067;-54
2021/03/04 00:44:29;;;;;;;;;;;19.80;37.80;;;;;;500389;237;1163;-54
2021/03/04 00:46:30;;;;;;;;;;;19.80;38.00;;;;;;500342;237;989;-54
2021/03/04 00:48:32;;;;;;;;;;;19.90;37.80;;;;;;500612;237;1108;-54
2021/03/04 00:50:33;;;;;;;;;;;19.90;37.70;;;;;;500345;237;1070;-54
2021/03/04 00:52:34;;;;;;;;;;;19.90;37.80;;;;;;500418;237;1184;-54
2021/03/04 00:54:36;;;;;;;;;;;19.80;37.80;;;;;;500420;237;952;-54
2021/03/04 00:56:37;;;;;;;;;;;19.70;37.90;;;;;;500298;237;1165;-54
2021/03/04 00:58:38;;;;;;;;;;;19.70;38.10;;;;;;500481;237;2145;-54
2021/03/04 01:00:39;;;;;;;;;;;19.60;38.20;;;;;;500401;237;1097;-54
2021/03/04 01:02:41;;;;;;;;;;;19.50;38.30;;;;;;500451;237;1177;-54
2021/03/04 01:04:42;;;;;;;;;;;19.50;38.40;;;;;;500683;237;1063;-54
2021/03/04 01:06:43;;;;;;;;;;;19.40;38.60;;;;;;500351;237;1279;-53
2021/03/04 01:08:45;;;;;;;;;;;19.40;38.70;;;;;;500433;237;1012;-54
2021/03/04 01:10:46;;;;;;;;;;;19.30;38.70;;;;;;500500;237;1141;-54
2021/03/04 01:12:47;;;;;;;;;;;19.20;38.80;;;;;;500425;237;1013;-53
2021/03/04 01:14:48;;;;;;;;;;;19.20;38.90;;;;;;500382;237;1184;-54
2021/03/04 01:16:50;;;;;;;;;;;19.20;39.00;;;;;;500424;237;1137;-54
2021/03/04 01:18:51;;;;;;;;;;;19.10;39.00;;;;;;500399;237;2187;-54
2021/03/04 01:20:52;;;;;;;;;;;19.10;39.10;;;;;;500462;237;1170;-54
2021/03/04 01:22:53;;;;;;;;;;;19.00;39.10;;;;;;500448;237;1132;-54
2021/03/04 01:24:55;;;;;;;;;;;19.00;39.20;;;;;;500575;237;982;-54
2021/03/04 01:26:56;;;;;;;;;;;18.90;39.20;;;;;;500531;237;1241;-54
2021/03/04 01:28:57;;;;;;;;;;;18.90;39.30;;;;;;500405;237;1181;-54
2021/03/04 01:30:59;;;;;;;;;;;18.90;38.10;;;;;;500354;237;1247;-54
2021/03/04 01:33:00;;;;;;;;;;;18.90;39.50;;;;;;500422;237;1202;-54
2021/03/04 01:35:01;;;;;;;;;;;18.80;39.50;;;;;;500563;237;1276;-54
2021/03/04 01:37:02;;;;;;;;;;;18.80;39.50;;;;;;500349;237;1155;-54
2021/03/04 01:39:04;;;;;;;;;;;18.70;39.60;;;;;;500577;237;2133;-54
2021/03/04 01:41:05;;;;;;;;;;;18.70;38.30;;;;;;500424;237;1390;-53
2021/03/04 01:43:06;;;;;;;;;;;18.70;39.70;;;;;;500658;237;972;-54
2021/03/04 01:45:07;;;;;;;;;;;18.70;39.70;;;;;;500556;237;1195;-54
2021/03/04 01:47:09;;;;;;;;;;;18.70;39.70;;;;;;500344;237;1242;-54
2021/03/04 01:49:10;;;;;;;;;;;18.60;39.70;;;;;;500424;237;1001;-54
2021/03/04 01:51:11;;;;;;;;;;;18.60;39.70;;;;;;500551;237;1355;-54
2021/03/04 01:53:13;;;;;;;;;;;18.60;39.80;;;;;;500489;237;1544;-54
2021/03/04 01:55:14;;;;;;;;;;;18.60;39.80;;;;;;500521;237;964;-54
2021/03/04 01:57:15;;;;;;;;;;;18.60;39.90;;;;;;500295;237;1169;-54
2021/03/04 01:59:16;;;;;;;;;;;18.50;39.90;;;;;;500488;237;2192;-54
2021/03/04 02:01:18;;;;;;;;;;;18.50;39.90;;;;;;500302;237;1314;-54
2021/03/04 02:03:19;;;;;;;;;;;18.50;40.00;;;;;;500506;237;1239;-54
2021/03/04 02:05:20;;;;;;;;;;;18.50;40.00;;;;;;500713;237;1000;-54
2021/03/04 02:07:22;;;;;;;;;;;18.40;40.00;;;;;;500349;237;1279;-54
2021/03/04 02:09:23;;;;;;;;;;;18.40;40.00;;;;;;500556;237;1118;-54
2021/03/04 02:11:24;;;;;;;;;;;18.40;40.00;;;;;;500443;237;1171;-54
2021/03/04 02:13:25;;;;;;;;;;;18.40;40.00;;;;;;500504;237;1037;-53
2021/03/04 02:15:27;;;;;;;;;;;18.30;40.00;;;;;;500423;237;1187;-54
2021/03/04 02:17:28;;;;;;;;;;;18.30;40.00;;;;;;500452;237;1221;-54
2021/03/04 02:19:29;;;;;;;;;;;18.30;40.10;;;;;;500373;237;2136;-53
2021/03/04 02:21:30;;;;;;;;;;;18.30;40.10;;;;;;500392;237;1275;-54
2021/03/04 02:23:32;;;;;;;;;;;18.30;40.10;;;;;;500382;237;1118;-54
2021/03/04 02:25:33;;;;;;;;;;;18.30;40.10;;;;;;500395;237;1379;-53
2021/03/04 02:27:34;;;;;;;;;;;18.30;40.20;;;;;;500359;237;1161;-54
2021/03/04 02:29:36;;;;;;;;;;;18.20;40.10;;;;;;500384;237;1046;-54
2021/03/04 02:31:37;;;;;;;;;;;18.20;40.20;;;;;;500286;237;1167;-54
2021/03/04 02:33:38;;;;;;;;;;;18.20;40.30;;;;;;500352;237;1091;-54
2021/03/04 02:35:39;;;;;;;;;;;18.20;40.30;;;;;;500336;237;1052;-53
2021/03/04 02:37:41;;;;;;;;;;;18.20;40.30;;;;;;500338;237;1034;-54
2021/03/04 02:39:42;;;;;;;;;;;18.20;40.30;;;;;;500498;237;2105;-53
2021/03/04 02:41:43;;;;;;;;;;;18.20;40.30;;;;;;500539;237;1331;-54
2021/03/04 02:43:44;;;;;;;;;;;18.10;40.30;;;;;;500506;237;1048;-54
2021/03/04 02:45:46;;;;;;;;;;;18.10;40.30;;;;;;500473;237;1162;-54
2021/03/04 02:47:47;;;;;;;;;;;18.10;40.40;;;;;;500414;237;1041;-54
2021/03/04 02:49:48;;;;;;;;;;;18.10;40.40;;;;;;500374;237;1380;-54
2021/03/04 02:51:50;;;;;;;;;;;18.10;40.40;;;;;;500394;237;1081;-54
2021/03/04 02:53:51;;;;;;;;;;;18.10;40.30;;;;;;500393;237;982;-54
2021/03/04 02:55:52;;;;;;;;;;;18.20;40.20;;;;;;500530;237;1055;-54
2021/03/04 02:57:53;;;;;;;;;;;18.20;40.10;;;;;;500333;237;1056;-53
2021/03/04 02:59:55;;;;;;;;;;;18.20;40.00;;;;;;500537;237;2129;-53
2021/03/04 03:01:56;;;;;;;;;;;18.20;40.00;;;;;;500386;237;1139;-54
2021/03/04 03:03:58;;;;;;;;;;;18.30;40.00;;;;;;500371;237;1199;-54
2021/03/04 03:06:02;;;;;;;;;;;18.30;39.90;;;;;;500494;237;1063;-54
2021/03/04 03:08:00;;;;;;;;;;;18.30;39.90;;;;;;500350;237;1557;-54
2021/03/04 03:10:02;;;;;;;;;;;18.30;39.80;;;;;;500429;237;1056;-54
2021/03/04 03:12:03;;;;;;;;;;;18.40;39.80;;;;;;500189;237;1066;-54
2021/03/04 03:14:04;;;;;;;;;;;18.40;39.70;;;;;;500427;237;955;-54
2021/03/04 03:16:05;;;;;;;;;;;18.40;39.70;;;;;;500319;237;1156;-54
2021/03/04 03:18:07;;;;;;;;;;;18.40;39.70;;;;;;500359;237;1107;-54
2021/03/04 03:20:08;;;;;;;;;;;18.50;39.60;;;;;;500328;237;2120;-54
2021/03/04 03:22:09;;;;;;;;;;;18.50;39.60;;;;;;500380;237;1128;-54
2021/03/04 03:24:11;;;;;;;;;;;18.50;39.60;;;;;;500406;237;1066;-54
2021/03/04 03:26:12;;;;;;;;;;;18.50;39.50;;;;;;500366;237;1020;-54
2021/03/04 03:28:13;;;;;;;;;;;18.50;39.50;;;;;;500432;237;1035;-53
2021/03/04 03:30:14;;;;;;;;;;;18.60;39.50;;;;;;500533;237;1041;-54
2021/03/04 03:32:16;;;;;;;;;;;18.60;39.40;;;;;;500402;237;1229;-54
2021/03/04 03:34:17;;;;;;;;;;;18.60;39.40;;;;;;500425;237;1036;-53
2021/03/04 03:36:18;;;;;;;;;;;18.60;39.30;;;;;;500428;237;1212;-54
2021/03/04 03:38:19;;;;;;;;;;;18.70;39.40;;;;;;500454;237;2116;-54
2021/03/04 03:40:21;;;;;;;;;;;18.70;39.30;;;;;;500422;237;1067;-54
2021/03/04 03:42:22;;;;;;;;;;;18.70;39.30;;;;;;500308;237;1172;-54
2021/03/04 03:44:23;;;;;;;;;;;18.70;39.30;;;;;;500479;237;1133;-54
2021/03/04 03:46:25;;;;;;;;;;;18.70;39.20;;;;;;500300;237;1156;-54
2021/03/04 03:48:26;;;;;;;;;;;18.70;39.20;;;;;;500610;237;1054;-54
2021/03/04 03:50:27;;;;;;;;;;;18.80;39.20;;;;;;500634;237;1058;-53
2021/03/04 03:52:28;;;;;;;;;;;18.80;39.20;;;;;;500366;237;1176;-54
2021/03/04 03:54:30;;;;;;;;;;;18.80;39.10;;;;;;500511;237;1052;-54
2021/03/04 03:56:31;;;;;;;;;;;18.80;39.10;;;;;;500382;237;1370;-54
2021/03/04 03:58:32;;;;;;;;;;;18.80;39.10;;;;;;500350;237;2141;-54
2021/03/04 04:00:34;;;;;;;;;;;18.80;39.00;;;;;;500349;237;1040;-54
2021/03/04 04:02:35;;;;;;;;;;;18.90;39.00;;;;;;500295;237;1294;-54
2021/03/04 04:04:36;;;;;;;;;;;18.90;39.00;;;;;;500340;237;1048;-54
2021/03/04 04:06:37;;;;;;;;;;;18.90;39.00;;;;;;500330;237;1142;-54
2021/03/04 04:08:39;;;;;;;;;;;18.90;39.00;;;;;;500382;237;1048;-54
2021/03/04 04:10:40;;;;;;;;;;;18.90;37.70;;;;;;500466;237;1054;-54
2021/03/04 04:12:41;;;;;;;;;;;18.90;38.90;;;;;;500379;237;1137;-54
2021/03/04 04:14:42;;;;;;;;;;;19.00;39.00;;;;;;500527;237;1030;-54
2021/03/04 04:16:44;;;;;;;;;;;19.00;38.90;;;;;;500386;237;1196;-54
2021/03/04 04:18:45;;;;;;;;;;;19.00;38.90;;;;;;500405;237;2137;-54
2021/03/04 04:20:46;;;;;;;;;;;19.00;38.90;;;;;;500355;237;1156;-54
2021/03/04 04:22:48;;;;;;;;;;;19.00;38.90;;;;;;500393;237;983;-54
2021/03/04 04:24:49;;;;;;;;;;;19.00;38.80;;;;;;500443;237;1001;-54
2021/03/04 04:26:50;;;;;;;;;;;19.00;38.80;;;;;;500486;237;984;-54
2021/03/04 04:28:51;;;;;;;;;;;19.10;38.80;;;;;;500360;237;972;-54
2021/03/04 04:30:53;;;;;;;;;;;19.10;38.80;;;;;;500489;237;1050;-54
2021/03/04 04:32:54;;;;;;;;;;;19.10;38.80;;;;;;500337;237;1205;-54
2021/03/04 04:34:56;;;;;;;;;;;19.10;38.80;;;;;;500381;237;938;-54
2021/03/04 04:36:57;;;;;;;;;;;19.10;38.70;;;;;;500410;237;1237;-54
2021/03/04 04:38:58;;;;;;;;;;;19.10;38.70;;;;;;500462;237;2144;-54
2021/03/04 04:40:59;;;;;;;;;;;19.10;38.70;;;;;;500533;237;1100;-54
2021/03/04 04:43:01;;;;;;;;;;;19.10;38.70;;;;;;500387;237;1108;-54
2021/03/04 04:45:02;;;;;;;;;;;19.20;38.70;;;;;;500381;237;1056;-54
2021/03/04 04:47:03;;;;;;;;;;;19.20;38.70;;;;;;500294;237;1420;-54
2021/03/04 04:49:05;;;;;;;;;;;19.20;38.60;;;;;;500337;237;1372;-53
2021/03/04 04:51:06;;;;;;;;;;;19.20;38.60;;;;;;500380;237;1192;-54
2021/03/04 04:53:07;;;;;;;;;;;19.20;38.60;;;;;;500437;237;1094;-54
2021/03/04 04:55:08;;;;;;;;;;;19.20;38.60;;;;;;500342;237;995;-54
2021/03/04 04:57:11;;;;;;;;;;;19.20;38.60;;;;;;500290;237;1099;-54
2021/03/04 04:59:11;;;;;;;;;;;19.20;38.60;;;;;;500195;237;2184;-54
2021/03/04 05:01:12;;;;;;;;;;;19.20;38.60;;;;;;500319;237;1325;-54
2021/03/04 05:03:14;;;;;;;;;;;19.20;38.60;;;;;;500316;237;1168;-54
2021/03/04 05:05:15;;;;;;;;;;;19.30;38.60;;;;;;500354;237;1015;-54
2021/03/04 05:07:16;;;;;;;;;;;19.30;38.60;;;;;;500262;237;1158;-54
2021/03/04 05:09:17;;;;;;;;;;;19.30;38.60;;;;;;500408;237;1195;-54
2021/03/04 05:11:19;;;;;;;;;;;19.30;38.50;;;;;;500393;237;1301;-54
2021/03/04 05:13:20;;;;;;;;;;;19.30;38.50;;;;;;500394;237;1059;-54
2021/03/04 05:15:21;;;;;;;;;;;19.30;38.50;;;;;;500418;237;1089;-54
2021/03/04 05:17:22;;;;;;;;;;;19.30;38.50;;;;;;500303;237;1241;-54
2021/03/04 05:19:24;;;;;;;;;;;19.30;38.50;;;;;;500440;237;2128;-54
2021/03/04 05:21:25;;;;;;;;;;;19.40;38.50;;;;;;500370;237;1205;-54
2021/03/04 05:23:26;;;;;;;;;;;19.40;38.50;;;;;;500496;237;1190;-54
2021/03/04 05:25:27;;;;;;;;;;;19.30;38.40;;;;;;500428;237;1054;-54
2021/03/04 05:27:29;;;;;;;;;;;19.40;37.10;;;;;;500346;237;1406;-54
2021/03/04 05:29:30;;;;;;;;;;;19.40;38.40;;;;;;500512;237;1062;-54
2021/03/04 05:31:31;;;;;;;;;;;19.40;38.40;;;;;;500286;237;1038;-54
2021/03/04 05:33:33;;;;;;;;;;;19.40;38.40;;;;;;500320;237;1170;-54
2021/03/04 05:35:34;;;;;;;;;;;19.40;37.10;;;;;;500196;237;975;-54
2021/03/04 05:37:35;;;;;;;;;;;19.40;38.40;;;;;;500125;237;1033;-54
2021/03/04 05:39:36;;;;;;;;;;;19.40;38.40;;;;;;500143;237;2134;-54
2021/03/04 05:41:38;;;;;;;;;;;19.40;38.40;;;;;;500096;237;1157;-54
2021/03/04 05:43:39;;;;;;;;;;;19.40;38.40;;;;;;500159;237;1173;-54
2021/03/04 05:45:40;;;;;;;;;;;19.50;38.40;;;;;;500125;237;1266;-54
2021/03/04 05:47:42;;;;;;;;;;;19.50;38.40;;;;;;500104;237;1211;-51
2021/03/04 05:49:44;;;;;;;;;;;19.50;38.40;;;;;;500160;237;1047;-54
2021/03/04 05:51:45;;;;;;;;;;;19.50;38.40;;;;;;500130;237;1204;-54
2021/03/04 05:53:46;;;;;;;;;;;19.50;38.30;;;;;;500102;237;1036;-55
2021/03/04 05:55:47;;;;;;;;;;;19.50;38.30;;;;;;500041;237;1038;-54
2021/03/04 05:57:49;;;;;;;;;;;19.50;38.30;;;;;;500051;237;1051;-54
2021/03/04 05:59:50;;;;;;;;;;;19.50;38.30;;;;;;500089;237;2145;-54
2021/03/04 06:01:51;;;;;;;;;;;19.50;38.30;;;;;;500109;237;1041;-54
2021/03/04 06:03:53;;;;;;;;;;;19.50;38.30;;;;;;500088;237;1195;-54
2021/03/04 06:05:54;;;;;;;;;;;19.50;38.30;;;;;;500004;237;1196;-53
2021/03/04 06:07:55;;;;;;;;;;;19.50;38.30;;;;;;500186;237;1174;-54
2021/03/04 06:09:57;;;;;;;;;;;19.50;38.20;;;;;;500130;237;1033;-54
2021/03/04 06:11:58;;;;;;;;;;;19.50;38.20;;;;;;500255;237;1047;-54
2021/03/04 06:13:59;;;;;;;;;;;19.50;38.20;;;;;;500158;237;1039;-54
2021/03/04 06:16:02;;;;;;;;;;;19.50;38.20;;;;;;500108;237;1062;-54
2021/03/04 06:18:02;;;;;;;;;;;19.60;38.30;;;;;;500195;237;1437;-54
2021/03/04 06:20:03;;;;;;;;;;;19.60;38.30;;;;;;500128;237;2155;-54
2021/03/04 06:22:05;;;;;;;;;;;19.50;38.20;;;;;;500136;237;1056;-55
2021/03/04 06:24:06;;;;;;;;;;;19.60;38.30;;;;;;500005;237;1074;-54
2021/03/04 06:26:07;;;;;;;;;;;19.60;36.90;;;;;;499914;237;1156;-54
2021/03/04 06:28:09;;;;;;;;;;;19.60;38.20;;;;;;499942;237;1091;-54
2021/03/04 06:30:10;;;;;;;;;;;19.60;38.20;;;;;;499919;237;1034;-54
2021/03/04 06:32:11;;;;;;;;;;;19.60;38.20;;;;;;499870;237;1080;-54
2021/03/04 06:34:12;;;;;;;;;;;19.60;38.20;;;;;;500043;237;1242;-54
2021/03/04 06:36:14;;;;;;;;;;;19.60;38.20;;;;;;499950;237;1150;-54
2021/03/04 06:38:15;;;;;;;;;;;19.60;38.20;;;;;;499966;237;1140;-54
2021/03/04 06:40:16;;;;;;;;;;;19.60;38.10;;;;;;499935;237;2188;-54
2021/03/04 06:42:18;;;;;;;;;;;19.70;36.90;;;;;;499891;237;1158;-52
2021/03/04 06:44:19;;;;;;;;;;;19.70;38.20;;;;;;499896;237;1375;-52
2021/03/04 06:46:20;;;;;;;;;;;19.60;38.10;;;;;;499919;237;1158;-54
2021/03/04 06:48:21;;;;;;;;;;;19.70;38.20;;;;;;499969;237;1145;-54
2021/03/04 06:50:23;;;;;;;;;;;19.70;38.20;;;;;;500038;237;1029;-54
2021/03/04 06:52:24;;;;;;;;;;;19.70;38.10;;;;;;499962;237;1129;-54
2021/03/04 06:54:26;;;;;;;;;;;19.70;38.20;;;;;;499807;237;1072;-54
2021/03/04 06:56:27;;;;;;;;;;;19.70;38.10;;;;;;499714;237;1961;-54
2021/03/04 06:58:28;;;;;;;;;;;19.70;38.20;;;;;;499720;237;1263;-54
2021/03/04 07:00:30;;;;;;;;;;;19.70;38.10;;;;;;499628;237;2148;-54
2021/03/04 07:02:31;;;;;;;;;;;19.70;38.10;;;;;;499733;237;1301;-54
2021/03/04 07:04:32;;;;;;;;;;;19.70;38.10;;;;;;499855;237;1180;-54
2021/03/04 07:06:33;;;;;;;;;;;19.70;38.10;;;;;;499815;237;1329;-53
2021/03/04 07:08:35;;;;;;;;;;;19.70;38.10;;;;;;499764;237;1085;-54
2021/03/04 07:10:36;;;;;;;;;;;19.70;38.10;;;;;;499718;237;1042;-54
2021/03/04 07:12:37;;;;;;;;;;;19.70;38.10;;;;;;499536;237;1158;-51
2021/03/04 07:14:40;;;;;;;;;;;19.70;38.10;;;;;;499671;237;1062;-52
2021/03/04 07:16:43;;;;;;;;;;;19.70;38.10;;;;;;499722;237;1186;-51
2021/03/04 07:18:43;;;;;;;;;;;19.70;38.00;;;;;;499734;237;1351;-51
2021/03/04 07:20:44;;;;;;;;;;;19.70;38.10;;;;;;499644;237;2187;-51
2021/03/04 07:22:45;;;;;;;;;;;19.70;38.00;;;;;;499452;237;1201;-51
2021/03/04 07:24:46;;;;;;;;;;;19.70;38.10;;;;;;499727;237;1308;-51
2021/03/04 07:26:48;;;;;;;;;;;19.80;38.10;;;;;;499759;237;1275;-51
2021/03/04 07:28:50;;;;;;;;;;;19.80;38.10;;;;;;499836;237;1063;-52
2021/03/04 07:30:51;;;;;;;;;;;19.80;38.00;;;;;;499684;237;2288;-52
2021/03/04 07:32:52;;;;;;;;;;;19.80;38.00;;;;;;499539;237;1076;-52
2021/03/04 07:34:54;;;;;;;;;;;19.80;38.10;;;;;;499450;237;1271;-51
2021/03/04 07:36:55;;;;;;;;;;;19.80;38.00;;;;;;499604;237;1244;-52
2021/03/04 07:38:56;;;;;;;;;;;19.80;38.00;;;;;;499634;237;1036;-54
2021/03/04 07:40:57;;;;;;;;;;;19.80;38.00;;;;;;499696;237;2226;-54
2021/03/04 07:42:59;;;;;;;;;;;19.80;38.00;;;;;;499681;237;1231;-54
2021/03/04 07:45:00;;;;;;;;;;;19.80;38.00;;;;;;499740;237;1179;-52
2021/03/04 07:47:01;;;;;;;;;;;19.80;38.00;;;;;;499587;237;1342;-52
2021/03/04 07:49:03;;;;;;;;;;;19.80;38.00;;;;;;499480;237;1166;-52
2021/03/04 07:51:04;;;;;;;;;;;19.80;38.00;;;;;;499425;237;1144;-52
2021/03/04 07:53:05;;;;;;;;;;;19.80;38.00;;;;;;499531;237;1268;-51
2021/03/04 07:55:06;;;;;;;;;;;19.80;37.90;;;;;;499497;237;1058;-52
2021/03/04 07:57:08;;;;;;;;;;;19.90;36.60;;;;;;499453;237;1176;-52
2021/03/04 07:59:09;;;;;;;;;;;19.80;36.70;;;;;;499531;237;1085;-52
2021/03/04 08:01:10;;;;;;;;;;;19.80;38.00;;;;;;499589;237;2132;-51
2021/03/04 08:03:11;;;;;;;;;;;19.90;36.60;;;;;;499489;237;1073;-52
2021/03/04 08:05:13;;;;;;;;;;;19.90;37.90;;;;;;499365;237;1251;-52
2021/03/04 08:07:14;;;;;;;;;;;19.90;37.90;;;;;;499385;237;1229;-52
2021/03/04 08:09:16;;;;;;;;;;;19.90;37.90;;;;;;499525;237;1247;-52
2021/03/04 08:11:17;;;;;;;;;;;19.90;37.90;;;;;;499599;237;1192;-51
2021/03/04 08:13:18;;;;;;;;;;;19.90;37.90;;;;;;499348;237;1080;-51
2021/03/04 08:15:20;;;;;;;;;;;19.90;37.90;;;;;;499290;237;1043;-52
2021/03/04 08:17:21;;;;;;;;;;;19.90;36.60;;;;;;499328;237;1214;-52
2021/03/04 08:19:22;;;;;;;;;;;19.90;37.90;;;;;;499591;237;1189;-52
2021/03/04 08:21:24;;;;;;;;;;;19.90;36.50;;;;;;499382;237;2180;-52
2021/03/04 08:23:25;;;;;;;;;;;19.90;36.50;;;;;;499526;237;1067;-51
2021/03/04 08:25:26;;;;;;;;;;;19.90;36.50;;;;;;499362;237;1034;-52
2021/03/04 08:27:28;;;;;;;;;;;19.90;37.90;;;;;;499345;237;1046;-54
2021/03/04 08:29:29;;;;;;;;;;;19.90;36.50;;;;;;499415;237;1075;-53
2021/03/04 08:31:31;;;;;;;;;;;19.90;37.80;;;;;;499375;238;1045;-54
2021/03/04 08:33:32;;;;;;;;;;;19.90;36.50;;;;;;499446;237;1060;-54
2021/03/04 08:35:33;;;;;;;;;;;19.90;37.90;;;;;;499377;237;1174;-52
2021/03/04 08:37:34;;;;;;;;;;;19.90;36.50;;;;;;499428;237;1083;-51
2021/03/04 08:39:36;;;;;;;;;;;19.90;36.50;;;;;;499338;237;1208;-51
2021/03/04 08:41:37;;;;;;;;;;;19.90;37.90;;;;;;499229;237;2137;-51
2021/03/04 08:43:39;;;;;;;;;;;19.90;37.80;;;;;;499388;237;1100;-51
2021/03/04 08:45:40;;;;;;;;;;;19.90;37.90;;;;;;499449;237;1055;-51
2021/03/04 08:47:41;;;;;;;;;;;19.90;37.80;;;;;;499516;237;1164;-52
2021/03/04 08:49:42;;;;;;;;;;;20.00;37.90;;;;;;499447;237;1075;-52
2021/03/04 08:51:44;;;;;;;;;;;19.90;37.90;;;;;;499659;237;1330;-54
2021/03/04 08:53:45;;;;;;;;;;;20.00;37.90;;;;;;499791;237;1075;-54
2021/03/04 08:55:46;;;;;;;;;;;19.90;36.50;;;;;;499425;237;1128;-54
2021/03/04 08:57:48;;;;;;;;;;;20.00;37.90;;;;;;499696;237;1217;-54
2021/03/04 08:59:49;;;;;;;;;;;20.00;37.90;;;;;;500266;237;914;-54
2021/03/04 09:01:50;;;;;;;;;;;20.00;37.90;;;;;;499648;237;2183;-54
2021/03/04 09:03:52;;;;;;;;;;;20.00;37.90;;;;;;499791;237;1113;-54
2021/03/04 09:05:53;;;;;;;;;;;20.00;36.60;;;;;;499340;237;1214;-54
2021/03/04 09:07:54;;;;;;;;;;;20.00;37.90;;;;;;499777;237;1013;-54
2021/03/04 09:09:55;;;;;;;;;;;20.00;37.90;;;;;;499723;237;1082;-54
2021/03/04 09:11:57;;;;;;;;;;;20.00;37.90;;;;;;499541;237;1214;-54
2021/03/04 09:13:58;;;;;;;;;;;20.00;37.90;;;;;;500335;237;1121;-54
2021/03/04 09:16:05;;;;;;;;;;;20.00;37.80;;;;;;500209;237;831;-54
2021/03/04 09:18:01;;;;;;;;;;;20.00;37.70;;;;;;500028;237;1721;-54
2021/03/04 09:20:02;;;;;;;;;;;20.10;37.60;;;;;;499466;237;1172;-54
2021/03/04 09:22:04;;;;;;;;;;;20.10;37.60;;;;;;499439;237;2268;-54
2021/03/04 09:24:05;;;;;;;;;;;20.10;37.70;;;;;;499562;237;1053;-54
2021/03/04 09:26:07;;;;;;;;;;;20.00;37.80;;;;;;499481;237;1114;-54
2021/03/04 09:28:08;;;;;;;;;;;19.90;37.80;;;;;;499488;237;2367;-54
2021/03/04 09:30:09;;;;;;;;;;;19.90;38.00;;;;;;499426;237;1078;-54
2021/03/04 09:32:10;;;;;;;;;;;19.80;36.80;;;;;;499372;237;1053;-54
2021/03/04 09:34:12;;;;;;;;;;;19.70;38.10;;;;;;499450;237;1056;-53
2021/03/04 09:36:13;;;;;;;;;;;19.70;38.30;;;;;;499404;237;1166;-54
2021/03/04 09:38:15;;;;;;;;;;;19.70;38.40;;;;;;499465;237;1035;-54
2021/03/04 09:40:15;;;;;;;;;;;19.50;37.10;;;;;;499425;237;1227;-54
2021/03/04 09:42:17;;;;;;;;;;;19.50;37.20;;;;;;499391;237;2167;-54
2021/03/04 09:44:18;;;;;;;;;;;19.50;38.50;;;;;;499433;237;1085;-54
2021/03/04 09:46:20;;;;;;;;;;;;;;;;;;499339;237;1356;-54
2021/03/04 09:48:22;;;;;;;;;;;19.40;38.60;;;;;;499379;238;1208;-54
2021/03/04 09:50:23;;;;;;;;;;;19.40;38.70;;;;;;499191;237;1195;-54
2021/03/04 09:52:24;;;;;;;;;;;19.40;37.50;;;;;;499223;237;1098;-54
2021/03/04 09:54:26;;;;;;;;;;;19.30;37.60;;;;;;499493;237;1149;-54
2021/03/04 09:56:27;;;;;;;;;;;19.30;38.90;;;;;;499362;237;1230;-54
2021/03/04 09:58:28;;;;;;;;;;;19.20;38.90;;;;;;499556;237;1214;-54
2021/03/04 10:00:29;;;;;;;;;;;19.30;39.00;;;;;;499491;237;2124;-54
2021/03/04 10:02:31;;;;;;;;;;;19.20;39.00;;;;;;499235;237;1262;-54
2021/03/04 10:04:32;;;;;;;;;;;19.10;37.80;;;;;;499235;237;1062;-54
2021/03/04 10:06:34;;;;;;;;;;;19.10;39.20;;;;;;499358;237;1260;-54
2021/03/04 10:08:35;;;;;;;;;;;19.10;39.20;;;;;;499282;237;1118;-53
2021/03/04 10:10:36;;;;;;;;;;;19.10;37.90;;;;;;499368;237;1115;-54
2021/03/04 10:12:38;;;;;;;;;;;19.00;39.20;;;;;;499315;237;1033;-54
2021/03/04 10:14:39;;;;;;;;;;;19.00;39.30;;;;;;499564;237;1148;-54
2021/03/04 10:16:40;;;;;;;;;;;19.00;39.30;;;;;;499508;237;1064;-54
2021/03/04 10:18:43;;;;;;;;;;;18.90;38.10;;;;;;499374;237;1094;-54
2021/03/04 10:20:44;;;;;;;;;;;18.90;39.40;;;;;;499414;237;2153;-53
2021/03/04 10:22:45;;;;;;;;;;;18.90;39.40;;;;;;499453;237;1057;-54
2021/03/04 10:24:46;;;;;;;;;;;18.90;39.40;;;;;;499317;237;1078;-54
2021/03/04 10:26:48;;;;;;;;;;;18.90;38.20;;;;;;499270;237;1085;-53
2021/03/04 10:28:49;;;;;;;;;;;18.80;38.10;;;;;;499323;237;1116;-54
2021/03/04 10:30:50;;;;;;;;;;;18.80;39.50;;;;;;499437;237;1102;-54
2021/03/04 10:32:52;;;;;;;;;;;18.80;39.50;;;;;;499661;237;1192;-54
2021/03/04 10:34:53;;;;;;;;;;;18.80;38.30;;;;;;499403;237;1062;-54
2021/03/04 10:36:54;;;;;;;;;;;18.70;39.60;;;;;;499441;237;1182;-54
2021/03/04 10:38:56;;;;;;;;;;;18.70;39.60;;;;;;499440;237;1062;-54
2021/03/04 10:40:57;;;;;;;;;;;18.70;39.60;;;;;;499363;237;2180;-54
2021/03/04 10:42:58;;;;;;;;;;;18.70;39.60;;;;;;499392;237;1167;-54
2021/03/04 10:45:00;;;;;;;;;;;18.70;39.70;;;;;;499453;237;1129;-54
2021/03/04 10:47:01;;;;;;;;;;;18.70;39.70;;;;;;499566;237;1133;-54
2021/03/04 10:49:02;;;;;;;;;;;18.60;39.70;;;;;;499569;237;1059;-54
2021/03/04 10:51:03;;;;;;;;;;;18.60;39.70;;;;;;499370;237;1242;-54
2021/03/04 10:53:05;;;;;;;;;;;18.60;39.70;;;;;;499583;237;1071;-54
2021/03/04 10:55:07;;;;;;;;;;;18.60;39.80;;;;;;499431;237;1192;-53
2021/03/04 10:57:08;;;;;;;;;;;18.60;38.50;;;;;;499624;237;2082;-54
2021/03/04 10:59:09;;;;;;;;;;;18.60;39.80;;;;;;499322;237;1084;-54
2021/03/04 11:01:10;;;;;;;;;;;18.60;39.80;;;;;;499477;237;2137;-54
2021/03/04 11:03:12;;;;;;;;;;;18.60;39.80;;;;;;499687;237;1067;-54
2021/03/04 11:05:13;;;;;;;;;;;18.50;39.80;;;;;;499548;237;1096;-54
2021/03/04 11:07:15;;;;;;;;;;;18.50;39.90;;;;;;499422;237;1161;-54
2021/03/04 11:09:16;;;;;;;;;;;18.50;39.90;;;;;;499577;237;1265;-54
2021/03/04 11:11:17;;;;;;;;;;;18.50;40.00;;;;;;499445;237;1200;-54
2021/03/04 11:13:18;;;;;;;;;;;18.50;39.90;;;;;;499543;237;1070;-54
2021/03/04 11:15:19;;;;;;;;;;;18.50;38.60;;;;;;499705;237;1178;-54
2021/03/04 11:17:21;;;;;;;;;;;18.40;39.90;;;;;;499687;237;1280;-54
2021/03/04 11:19:22;;;;;;;;;;;18.40;38.60;;;;;;499496;237;1127;-54
2021/03/04 11:21:23;;;;;;;;;;;18.40;40.00;;;;;;499298;237;2121;-54
2021/03/04 11:23:25;;;;;;;;;;;18.40;40.00;;;;;;499444;237;1272;-54
2021/03/04 11:25:26;;;;;;;;;;;18.40;40.00;;;;;;499460;237;1302;-54
2021/03/04 11:27:27;;;;;;;;;;;18.40;40.00;;;;;;499729;237;1175;-54
2021/03/04 11:29:28;;;;;;;;;;;18.40;40.10;;;;;;499354;237;1057;-54
2021/03/04 11:31:30;;;;;;;;;;;18.40;40.10;;;;;;499510;237;1343;-54
2021/03/04 11:33:31;;;;;;;;;;;18.30;40.00;;;;;;499216;237;1079;-54
2021/03/04 11:35:32;;;;;;;;;;;18.30;38.70;;;;;;499132;237;1452;-54
2021/03/04 11:37:33;;;;;;;;;;;18.30;40.00;;;;;;499625;237;1275;-54
2021/03/04 11:39:35;;;;;;;;;;;18.30;40.10;;;;;;499751;237;1198;-54
2021/03/04 11:41:36;;;;;;;;;;;18.30;40.10;;;;;;499704;237;2191;-54
2021/03/04 11:43:37;;;;;;;;;;;18.30;40.10;;;;;;499750;237;938;-54
2021/03/04 11:45:39;;;;;;;;;;;18.30;40.10;;;;;;499714;237;1266;-54
2021/03/04 11:47:40;;;;;;;;;;;18.20;40.10;;;;;;499707;237;1018;-54
2021/03/04 11:49:41;;;;;;;;;;;18.30;38.80;;;;;;499752;237;1050;-54
2021/03/04 11:51:42;;;;;;;;;;;18.20;40.10;;;;;;499459;237;1325;-53
2021/03/04 11:53:44;;;;;;;;;;;18.20;40.10;;;;;;499580;237;1286;-54
2021/03/04 11:55:45;;;;;;;;;;;18.20;40.10;;;;;;499131;237;1350;-53